createdAt,value
2023-05-05T00:00:26.036Z,100.00
2023-05-05T00:03:05.423Z,100.00
2023-05-05T00:05:37.770Z,100.00
2023-05-05T00:08:10.734Z,100.00
2023-05-05T00:10:45.130Z,100.00
2023-05-05T00:13:17.763Z,100.00
2023-05-05T00:15:51.414Z,100.00
2023-05-05T00:18:23.758Z,100.00
2023-05-05T00:20:56.316Z,100.00
2023-05-05T00:23:29.317Z,100.00
2023-05-05T00:26:02.035Z,100.00
2023-05-05T00:28:34.355Z,100.00
2023-05-05T00:31:06.860Z,100.00
2023-05-05T00:33:39.213Z,100.00
2023-05-05T00:36:12.762Z,100.00
2023-05-05T00:38:45.756Z,100.00
2023-05-05T00:41:18.057Z,100.00
2023-05-05T00:43:50.317Z,100.00
2023-05-05T00:46:24.481Z,100.00
2023-05-05T00:48:59.018Z,100.00
2023-05-05T00:51:31.859Z,100.00
2023-05-05T00:54:05.613Z,100.00
2023-05-05T00:56:37.890Z,100.00
2023-05-05T00:59:10.256Z,100.00
2023-05-05T01:01:42.820Z,100.00
2023-05-05T01:04:15.116Z,100.00
2023-05-05T01:06:57.896Z,100.00
2023-05-05T01:09:37.853Z,100.00
2023-05-05T01:12:18.491Z,100.00
2023-05-05T01:14:58.775Z,100.00
2023-05-05T01:17:38.525Z,100.00
2023-05-05T01:20:16.742Z,100.00
2023-05-05T01:22:54.152Z,100.00
2023-05-05T01:26:08.285Z,100.00
2023-05-05T01:29:19.076Z,100.00
2023-05-05T01:31:54.770Z,100.00
2023-05-05T01:34:34.184Z,100.00
2023-05-05T01:37:11.248Z,100.00
2023-05-05T01:39:46.562Z,100.00
2023-05-05T01:42:20.994Z,100.00
2023-05-05T01:44:54.194Z,100.00
2023-05-05T01:47:29.569Z,100.00
2023-05-05T01:50:03.999Z,100.00
2023-05-05T01:52:37.982Z,100.00
2023-05-05T01:55:11.265Z,100.00
2023-05-05T01:57:45.344Z,100.00
2023-05-05T02:00:19.721Z,100.00
2023-05-05T02:02:56.151Z,100.00
2023-05-05T02:05:30.413Z,100.00
2023-05-05T02:08:04.890Z,100.00
2023-05-05T02:10:40.141Z,100.00
2023-05-05T02:13:14.737Z,100.00
2023-05-05T02:15:48.680Z,100.00
2023-05-05T02:18:22.677Z,100.00
2023-05-05T02:20:55.754Z,100.00
2023-05-05T02:23:28.417Z,100.00
2023-05-05T02:26:06.790Z,100.00
2023-05-05T02:28:42.323Z,100.00
2023-05-05T02:31:16.061Z,100.00
2023-05-05T02:33:50.823Z,100.00
2023-05-05T02:36:28.071Z,100.00
2023-05-05T02:39:11.100Z,100.00
2023-05-05T02:41:46.999Z,100.00
2023-05-05T02:44:28.916Z,100.00
2023-05-05T02:47:03.526Z,100.00
2023-05-05T02:49:36.590Z,100.00
2023-05-05T02:52:08.947Z,100.00
2023-05-05T02:54:43.741Z,100.00
2023-05-05T02:57:26.553Z,100.00
2023-05-05T03:00:10.399Z,100.00
2023-05-05T03:02:46.562Z,100.00
2023-05-05T03:05:24.429Z,100.00
2023-05-05T03:08:03.010Z,100.00
2023-05-05T03:10:43.857Z,100.00
2023-05-05T03:13:18.270Z,100.00
2023-05-05T03:15:53.041Z,100.00
2023-05-05T03:18:31.061Z,100.00
2023-05-05T03:21:08.132Z,100.00
2023-05-05T03:23:42.713Z,100.00
2023-05-05T03:26:23.936Z,100.00
2023-05-05T03:28:56.319Z,100.00
2023-05-05T03:31:33.724Z,100.00
2023-05-05T03:34:07.834Z,100.00
2023-05-05T03:36:47.418Z,100.00
2023-05-05T03:39:21.315Z,100.00
2023-05-05T03:41:54.865Z,100.00
2023-05-05T03:44:28.208Z,100.00
2023-05-05T03:47:01.001Z,100.00
2023-05-05T03:49:35.434Z,100.00
2023-05-05T03:52:09.054Z,100.00
2023-05-05T03:54:42.434Z,100.00
2023-05-05T03:57:14.736Z,100.00
2023-05-05T03:59:47.403Z,100.00
2023-05-05T04:02:21.126Z,100.00
2023-05-05T04:04:53.775Z,100.00
2023-05-05T04:07:26.762Z,100.00
2023-05-05T04:09:59.116Z,100.00
2023-05-05T04:12:31.637Z,100.00
2023-05-05T04:15:04.752Z,100.00
2023-05-05T04:17:37.223Z,100.00
2023-05-05T04:20:10.485Z,100.00
2023-05-05T04:22:43.637Z,100.00
2023-05-05T04:25:16.171Z,100.00
2023-05-05T04:27:49.527Z,100.00
2023-05-05T04:30:22.651Z,100.00
2023-05-05T04:32:55.719Z,100.00
2023-05-05T04:35:28.144Z,100.00
2023-05-05T04:38:01.317Z,100.00
2023-05-05T04:40:38.504Z,100.00
2023-05-05T04:43:11.286Z,100.00
2023-05-05T04:45:52.188Z,100.00
2023-05-05T04:48:25.310Z,100.00
2023-05-05T04:50:57.632Z,100.00
2023-05-05T04:53:30.581Z,100.00
2023-05-05T04:56:03.049Z,100.00
2023-05-05T04:58:35.394Z,100.00
2023-05-05T05:01:07.707Z,100.00
2023-05-05T05:03:40.357Z,100.00
2023-05-05T05:06:13.818Z,100.00
2023-05-05T05:08:46.747Z,100.00
2023-05-05T05:11:19.542Z,100.00
2023-05-05T05:13:52.377Z,100.00
2023-05-05T05:16:26.109Z,100.00
2023-05-05T05:18:59.100Z,100.00
2023-05-05T05:21:33.197Z,100.00
2023-05-05T05:24:06.471Z,100.00
2023-05-05T05:26:39.012Z,100.00
2023-05-05T05:29:12.249Z,100.00
2023-05-05T05:31:44.584Z,100.00
2023-05-05T05:34:17.649Z,100.00
2023-05-05T05:36:50.672Z,100.00
2023-05-05T05:39:23.861Z,100.00
2023-05-05T05:41:56.135Z,100.00
2023-05-05T05:44:28.877Z,100.00
2023-05-05T05:47:01.821Z,100.00
2023-05-05T05:49:34.473Z,100.00
2023-05-05T05:52:06.807Z,100.00
2023-05-05T05:54:39.840Z,100.00
2023-05-05T05:57:13.135Z,100.00
2023-05-05T05:59:45.429Z,100.00
2023-05-05T06:02:18.389Z,100.00
2023-05-05T06:04:51.380Z,100.00
2023-05-05T06:07:23.668Z,100.00
2023-05-05T06:09:56.666Z,100.00
2023-05-05T06:12:28.915Z,100.00
2023-05-05T06:15:01.415Z,100.00
2023-05-05T06:17:33.676Z,100.00
2023-05-05T06:20:07.524Z,100.00
2023-05-05T06:22:39.968Z,100.00
2023-05-05T06:25:13.096Z,100.00
2023-05-05T06:27:45.519Z,100.00
2023-05-05T06:30:17.998Z,100.00
2023-05-05T06:32:50.288Z,100.00
2023-05-05T06:35:22.585Z,100.00
2023-05-05T06:37:54.834Z,100.00
2023-05-05T06:40:27.821Z,100.00
2023-05-05T06:43:00.022Z,100.00
2023-05-05T06:45:39.327Z,100.00
2023-05-05T06:48:11.920Z,100.00
2023-05-05T06:50:44.523Z,100.00
2023-05-05T06:53:16.789Z,100.00
2023-05-05T06:55:49.675Z,100.00
2023-05-05T06:58:21.961Z,100.00
2023-05-05T07:00:54.245Z,97.13
2023-05-05T07:03:27.646Z,97.57
2023-05-05T07:05:59.921Z,97.97
2023-05-05T07:08:32.619Z,98.41
2023-05-05T07:11:06.384Z,95.71
2023-05-05T07:13:38.636Z,95.03
2023-05-05T07:16:11.077Z,94.70
2023-05-05T07:18:43.406Z,92.62
2023-05-05T07:21:16.047Z,94.41
2023-05-05T07:23:48.394Z,94.00
2023-05-05T07:26:21.462Z,92.25
2023-05-05T07:28:54.827Z,91.94
2023-05-05T07:31:27.137Z,91.15
2023-05-05T07:33:59.654Z,91.84
2023-05-05T07:36:32.311Z,92.27
2023-05-05T07:39:04.721Z,92.78
2023-05-05T07:41:37.748Z,92.18
2023-05-05T07:44:10.734Z,93.12
2023-05-05T07:46:43.053Z,92.03
2023-05-05T07:49:15.554Z,91.64
2023-05-05T07:51:49.506Z,91.61
2023-05-05T07:54:21.889Z,92.06
2023-05-05T07:56:56.545Z,93.26
2023-05-05T07:59:29.059Z,90.51
2023-05-05T08:02:01.420Z,91.20
2023-05-05T08:04:33.711Z,87.06
2023-05-05T08:07:07.361Z,87.80
2023-05-05T08:09:39.694Z,84.88
2023-05-05T08:12:14.466Z,80.58
2023-05-05T08:14:46.682Z,83.62
2023-05-05T08:17:18.943Z,79.24
2023-05-05T08:19:52.004Z,81.72
2023-05-05T08:22:24.331Z,80.09
2023-05-05T08:24:56.623Z,80.00
2023-05-05T08:27:29.584Z,79.09
2023-05-05T08:30:03.195Z,82.19
2023-05-05T08:32:35.667Z,75.75
2023-05-05T08:35:08.830Z,75.73
2023-05-05T08:37:41.330Z,76.23
2023-05-05T08:40:14.125Z,75.57
2023-05-05T08:42:47.250Z,72.13
2023-05-05T08:45:20.115Z,72.20
2023-05-05T08:47:52.480Z,73.11
2023-05-05T08:50:27.204Z,73.91
2023-05-05T08:53:09.061Z,69.61
2023-05-05T08:55:49.576Z,70.66
2023-05-05T08:58:23.199Z,68.75
2023-05-05T09:00:56.664Z,65.06
2023-05-05T09:03:29.811Z,61.88
2023-05-05T09:06:02.411Z,62.34
2023-05-05T09:08:36.625Z,61.12
2023-05-05T09:11:08.925Z,60.79
2023-05-05T09:13:42.852Z,61.89
2023-05-05T09:16:15.285Z,60.67
2023-05-05T09:18:47.605Z,61.91
2023-05-05T09:21:20.630Z,62.63
2023-05-05T09:24:09.707Z,64.33
2023-05-05T09:26:43.842Z,63.32
2023-05-05T09:29:20.355Z,63.76
2023-05-05T09:32:04.906Z,62.92
2023-05-05T09:34:37.517Z,63.00
2023-05-05T09:37:09.841Z,63.09
2023-05-05T09:39:53.762Z,64.72
2023-05-05T09:42:26.164Z,63.19
2023-05-05T09:45:00.003Z,64.67
2023-05-05T09:47:36.503Z,69.01
2023-05-05T09:50:10.688Z,68.54
2023-05-05T09:52:43.102Z,65.81
2023-05-05T09:55:17.733Z,65.86
2023-05-05T09:57:50.383Z,64.96
2023-05-05T10:00:37.749Z,64.60
2023-05-05T10:03:10.263Z,65.46
2023-05-05T10:05:49.673Z,65.29
2023-05-05T10:08:24.031Z,64.47
2023-05-05T10:10:59.799Z,64.38
2023-05-05T10:13:36.116Z,65.43
2023-05-05T10:16:11.815Z,64.36
2023-05-05T10:18:46.514Z,65.68
2023-05-05T10:21:21.140Z,65.17
2023-05-05T10:24:02.201Z,61.47
2023-05-05T10:26:39.044Z,60.28
2023-05-05T10:29:21.062Z,61.08
2023-05-05T10:31:56.330Z,64.24
2023-05-05T10:34:36.361Z,61.22
2023-05-05T10:37:10.796Z,59.52
2023-05-05T10:39:44.949Z,59.37
2023-05-05T10:42:18.749Z,59.98
2023-05-05T10:44:51.425Z,61.14
2023-05-05T10:47:25.795Z,59.01
2023-05-05T10:50:06.831Z,60.12
2023-05-05T10:52:46.642Z,60.37
2023-05-05T10:55:24.267Z,60.12
2023-05-05T10:57:56.561Z,61.34
2023-05-05T11:00:51.412Z,59.07
2023-05-05T11:03:24.564Z,58.42
2023-05-05T11:06:12.885Z,58.13
2023-05-05T11:08:45.548Z,57.03
2023-05-05T11:11:38.486Z,58.02
2023-05-05T11:14:20.752Z,58.64
2023-05-05T11:16:54.419Z,58.20
2023-05-05T11:19:47.042Z,60.16
2023-05-05T11:22:19.378Z,60.43
2023-05-05T11:24:51.656Z,57.54
2023-05-05T11:28:05.201Z,58.25
2023-05-05T11:31:17.225Z,58.51
2023-05-05T11:33:49.813Z,58.78
2023-05-05T11:36:39.230Z,60.07
2023-05-05T11:39:21.026Z,57.83
2023-05-05T11:42:19.854Z,58.13
2023-05-05T11:44:52.956Z,57.39
2023-05-05T11:47:31.827Z,57.93
2023-05-05T11:50:27.841Z,58.83
2023-05-05T11:53:01.791Z,58.69
2023-05-05T11:55:34.141Z,56.01
2023-05-05T11:58:17.750Z,57.95
2023-05-05T12:00:50.726Z,56.45
2023-05-05T12:03:23.275Z,54.68
2023-05-05T12:05:55.746Z,58.21
2023-05-05T12:08:34.747Z,56.85
2023-05-05T12:11:08.867Z,57.44
2023-05-05T12:13:41.212Z,53.46
2023-05-05T12:16:14.926Z,53.14
2023-05-05T12:18:47.266Z,52.82
2023-05-05T12:21:21.218Z,52.68
2023-05-05T12:23:54.186Z,53.85
2023-05-05T12:26:28.177Z,56.44
2023-05-05T12:29:00.971Z,53.53
2023-05-05T12:31:37.194Z,52.51
2023-05-05T12:34:10.931Z,54.62
2023-05-05T12:36:43.666Z,52.43
2023-05-05T12:39:16.680Z,52.84
2023-05-05T12:41:49.354Z,51.55
2023-05-05T12:44:21.690Z,51.44
2023-05-05T12:46:55.168Z,53.33
2023-05-05T12:49:27.407Z,53.48
2023-05-05T12:52:00.287Z,54.59
2023-05-05T12:54:33.386Z,52.94
2023-05-05T12:57:11.202Z,52.63
2023-05-05T12:59:44.114Z,51.79
2023-05-05T13:02:16.741Z,51.62
2023-05-05T13:04:50.968Z,51.19
2023-05-05T13:07:23.242Z,51.96
2023-05-05T13:10:07.596Z,53.45
2023-05-05T13:12:40.003Z,51.43
2023-05-05T13:15:13.039Z,54.43
2023-05-05T13:17:45.607Z,56.93
2023-05-05T13:20:18.033Z,56.49
2023-05-05T13:22:50.701Z,54.38
2023-05-05T13:25:23.665Z,52.46
2023-05-05T13:27:55.961Z,54.01
2023-05-05T13:30:28.313Z,53.67
2023-05-05T13:33:02.637Z,52.20
2023-05-05T13:35:34.955Z,52.59
2023-05-05T13:38:07.268Z,53.31
2023-05-05T13:40:40.210Z,51.22
2023-05-05T13:43:12.534Z,52.78
2023-05-05T13:45:44.986Z,54.91
2023-05-05T13:48:17.303Z,56.41
2023-05-05T13:50:50.160Z,55.91
2023-05-05T13:53:22.484Z,55.10
2023-05-05T13:55:56.606Z,55.92
2023-05-05T13:58:28.985Z,56.42
2023-05-05T14:01:02.340Z,55.77
2023-05-05T14:03:34.728Z,55.50
2023-05-05T14:06:08.436Z,55.54
2023-05-05T14:08:40.903Z,53.44
2023-05-05T14:11:16.361Z,53.34
2023-05-05T14:13:48.975Z,52.27
2023-05-05T14:16:21.329Z,51.96
2023-05-05T14:18:53.688Z,52.13
2023-05-05T14:21:26.078Z,52.75
2023-05-05T14:23:58.597Z,51.58
2023-05-05T14:26:31.603Z,53.14
2023-05-05T14:29:03.903Z,54.34
2023-05-05T14:31:36.436Z,56.16
2023-05-05T14:34:08.726Z,54.39
2023-05-05T14:36:41.067Z,54.75
2023-05-05T14:39:13.524Z,54.29
2023-05-05T14:41:46.450Z,55.07
2023-05-05T14:44:18.798Z,54.40
2023-05-05T14:46:51.906Z,54.58
2023-05-05T14:49:24.270Z,53.90
2023-05-05T14:51:56.898Z,56.11
2023-05-05T14:54:29.275Z,55.81
2023-05-05T14:57:02.982Z,55.16
2023-05-05T14:59:35.300Z,54.03
2023-05-05T15:02:07.827Z,54.27
2023-05-05T15:04:40.080Z,54.09
2023-05-05T15:07:12.368Z,52.17
2023-05-05T15:09:44.652Z,52.21
2023-05-05T15:12:17.578Z,52.53
2023-05-05T15:14:49.915Z,52.82
2023-05-05T15:17:22.420Z,53.09
2023-05-05T15:19:54.845Z,54.57
2023-05-05T15:22:27.147Z,53.91
2023-05-05T15:24:59.522Z,54.97
2023-05-05T15:27:32.505Z,56.28
2023-05-05T15:30:06.387Z,55.54
2023-05-05T15:32:38.665Z,57.21
2023-05-05T15:35:11.113Z,58.16
2023-05-05T15:37:43.421Z,57.58
2023-05-05T15:40:15.713Z,57.98
2023-05-05T15:42:49.378Z,57.19
2023-05-05T15:45:21.684Z,57.32
2023-05-05T15:47:54.091Z,57.95
2023-05-05T15:50:26.447Z,57.52
2023-05-05T15:52:59.015Z,58.60
2023-05-05T15:55:31.313Z,58.86
2023-05-05T15:58:04.275Z,58.21
2023-05-05T16:00:36.645Z,58.53
2023-05-05T16:03:09.073Z,57.96
2023-05-05T16:05:41.465Z,57.26
2023-05-05T16:08:13.823Z,57.29
2023-05-05T16:10:46.118Z,56.17
2023-05-05T16:13:19.190Z,56.26
2023-05-05T16:15:51.634Z,55.89
2023-05-05T16:18:23.947Z,57.70
2023-05-05T16:20:56.199Z,58.23
2023-05-05T16:23:28.532Z,58.47
2023-05-05T16:26:01.260Z,58.68
2023-05-05T16:28:34.394Z,59.08
2023-05-05T16:31:08.706Z,58.98
2023-05-05T16:33:42.895Z,58.36
2023-05-05T16:36:15.267Z,59.59
2023-05-05T16:38:47.573Z,59.49
2023-05-05T16:41:20.418Z,58.37
2023-05-05T16:43:53.507Z,59.03
2023-05-05T16:46:26.037Z,59.29
2023-05-05T16:48:58.384Z,59.96
2023-05-05T16:51:30.865Z,59.75
2023-05-05T16:54:03.506Z,60.31
2023-05-05T16:56:36.095Z,60.69
2023-05-05T16:59:09.078Z,61.39
2023-05-05T17:01:42.601Z,61.71
2023-05-05T17:04:15.121Z,62.06
2023-05-05T17:06:47.369Z,62.88
2023-05-05T17:09:24.043Z,63.50
2023-05-05T17:11:56.498Z,64.29
2023-05-05T17:14:29.590Z,64.57
2023-05-05T17:17:02.301Z,65.60
2023-05-05T17:19:34.773Z,66.04
2023-05-05T17:22:07.049Z,66.46
2023-05-05T17:24:39.329Z,67.02
2023-05-05T17:27:12.074Z,66.93
2023-05-05T17:29:45.057Z,67.20
2023-05-05T17:32:17.343Z,67.86
2023-05-05T17:34:49.695Z,67.86
2023-05-05T17:37:22.062Z,67.46
2023-05-05T17:39:54.361Z,67.91
2023-05-05T17:42:29.515Z,68.34
2023-05-05T17:45:02.783Z,68.33
2023-05-05T17:47:35.666Z,68.75
2023-05-05T17:50:10.234Z,68.93
2023-05-05T17:52:44.313Z,69.17
2023-05-05T17:55:16.802Z,69.17
2023-05-05T17:57:49.523Z,69.33
2023-05-05T18:00:22.900Z,69.15
2023-05-05T18:02:55.311Z,69.38
2023-05-05T18:05:27.629Z,69.41
2023-05-05T18:07:59.980Z,69.76
2023-05-05T18:10:32.785Z,69.87
2023-05-05T18:13:05.144Z,69.54
2023-05-05T18:15:39.171Z,69.87
2023-05-05T18:18:11.539Z,69.48
2023-05-05T18:20:44.034Z,70.12
2023-05-05T18:23:16.623Z,69.62
2023-05-05T18:25:48.964Z,69.67
2023-05-05T18:28:21.434Z,70.17
2023-05-05T18:30:54.362Z,70.68
2023-05-05T18:33:26.655Z,71.27
2023-05-05T18:35:58.931Z,72.17
2023-05-05T18:38:31.842Z,72.03
2023-05-05T18:41:04.158Z,72.47
2023-05-05T18:43:36.511Z,72.01
2023-05-05T18:46:10.178Z,72.53
2023-05-05T18:48:42.458Z,73.10
2023-05-05T18:51:14.815Z,73.48
2023-05-05T18:53:47.147Z,74.02
2023-05-05T18:56:19.560Z,74.82
2023-05-05T18:58:52.005Z,74.64
2023-05-05T19:01:25.058Z,75.40
2023-05-05T19:03:57.548Z,76.25
2023-05-05T19:06:30.335Z,76.45
2023-05-05T19:09:03.313Z,77.08
2023-05-05T19:11:35.840Z,77.30
2023-05-05T19:14:08.150Z,77.29
2023-05-05T19:16:41.277Z,77.60
2023-05-05T19:19:13.733Z,77.94
2023-05-05T19:21:46.171Z,78.09
2023-05-05T19:24:18.516Z,78.45
2023-05-05T19:26:50.814Z,78.40
2023-05-05T19:29:23.127Z,78.47
2023-05-05T19:31:56.279Z,79.01
2023-05-05T19:34:28.615Z,78.99
2023-05-05T19:37:00.997Z,79.26
2023-05-05T19:39:33.284Z,79.38
2023-05-05T19:42:05.780Z,78.95
2023-05-05T19:44:38.064Z,79.03
2023-05-05T19:47:11.358Z,79.33
2023-05-05T19:49:43.656Z,80.68
2023-05-05T19:52:15.946Z,81.09
2023-05-05T19:54:48.320Z,80.74
2023-05-05T19:57:20.686Z,81.62
2023-05-05T19:59:53.017Z,81.87
2023-05-05T20:02:26.476Z,83.67
2023-05-05T20:04:58.868Z,83.90
2023-05-05T20:07:31.213Z,83.81
2023-05-05T20:10:03.987Z,85.68
2023-05-05T20:12:36.333Z,87.61
2023-05-05T20:15:10.685Z,89.53
2023-05-05T20:17:44.124Z,90.59
2023-05-05T20:20:19.305Z,91.63
2023-05-05T20:22:52.295Z,92.92
2023-05-05T20:25:24.687Z,94.89
2023-05-05T20:27:56.940Z,96.13
2023-05-05T20:30:29.245Z,96.79
2023-05-05T20:33:02.719Z,96.81
2023-05-05T20:35:35.070Z,97.99
2023-05-05T20:38:08.957Z,98.42
2023-05-05T20:40:41.290Z,100.00
2023-05-05T20:43:13.602Z,100.00
2023-05-05T20:45:45.916Z,100.00
2023-05-05T20:48:18.911Z,100.00
2023-05-05T20:50:51.518Z,99.97
2023-05-05T20:53:24.742Z,99.81
2023-05-05T20:55:57.114Z,99.56
2023-05-05T20:58:29.539Z,100.00
2023-05-05T21:01:02.087Z,100.00
2023-05-05T21:03:36.279Z,99.15
2023-05-05T21:06:08.564Z,99.59
2023-05-05T21:08:40.846Z,99.98
2023-05-05T21:11:13.171Z,100.00
2023-05-05T21:13:45.465Z,99.78
2023-05-05T21:16:17.819Z,100.00
2023-05-05T21:18:50.751Z,99.90
2023-05-05T21:21:23.898Z,99.89
2023-05-05T21:23:56.921Z,99.61
2023-05-05T21:26:29.191Z,100.00
2023-05-05T21:29:01.963Z,100.00
2023-05-05T21:31:34.296Z,100.00
2023-05-05T21:34:07.333Z,100.00
2023-05-05T21:36:39.636Z,100.00
2023-05-05T21:39:11.962Z,100.00
2023-05-05T21:41:44.253Z,100.00
2023-05-05T21:44:16.551Z,100.00
2023-05-05T21:46:48.890Z,100.00
2023-05-05T21:49:22.102Z,100.00
2023-05-05T21:51:54.413Z,100.00
2023-05-05T21:54:26.834Z,100.00
2023-05-05T21:56:59.467Z,100.00
2023-05-05T21:59:31.744Z,100.00
2023-05-05T22:02:04.055Z,100.00
2023-05-05T22:04:37.026Z,100.00
2023-05-05T22:07:27.984Z,100.00
2023-05-05T22:10:19.214Z,100.00
2023-05-05T22:12:51.697Z,100.00
2023-05-05T22:15:27.576Z,100.00
2023-05-05T22:18:02.406Z,100.00
2023-05-05T22:20:38.064Z,100.00
2023-05-05T22:23:10.435Z,100.00
2023-05-05T22:25:43.666Z,100.00
2023-05-05T22:28:15.986Z,100.00
2023-05-05T22:30:48.688Z,100.00
2023-05-05T22:33:21.021Z,100.00
2023-05-05T22:35:54.050Z,100.00
2023-05-05T22:38:26.487Z,100.00
2023-05-05T22:40:58.776Z,100.00
2023-05-05T22:43:31.078Z,100.00
2023-05-05T22:46:03.448Z,100.00
2023-05-05T22:48:35.856Z,100.00
2023-05-05T22:51:08.805Z,100.00
2023-05-05T22:53:41.213Z,100.00
2023-05-05T22:56:13.624Z,100.00
2023-05-05T22:58:46.228Z,100.00
2023-05-05T23:01:18.553Z,100.00
2023-05-05T23:03:50.903Z,100.00
2023-05-05T23:06:24.152Z,100.00
2023-05-05T23:08:56.668Z,100.00
2023-05-05T23:11:28.970Z,100.00
2023-05-05T23:14:01.362Z,100.00
2023-05-05T23:16:33.667Z,100.00
2023-05-05T23:19:06.003Z,100.00
2023-05-05T23:21:52.214Z,100.00
2023-05-05T23:24:25.821Z,100.00
2023-05-05T23:27:01.154Z,100.00
2023-05-05T23:29:33.571Z,100.00
2023-05-05T23:32:06.174Z,100.00
2023-05-05T23:34:38.482Z,100.00
2023-05-05T23:37:12.658Z,100.00
2023-05-05T23:39:45.014Z,100.00
2023-05-05T23:42:17.334Z,100.00
2023-05-05T23:44:49.653Z,100.00
2023-05-05T23:47:21.996Z,100.00
2023-05-05T23:49:54.277Z,100.00
2023-05-05T23:52:27.260Z,100.00
2023-05-05T23:54:59.536Z,100.00
2023-05-05T23:57:31.864Z,100.00
